Time;durP1;ratioP1;P1;durP2;ratioP2;P2;SDS_P1;SDS_P2;PMS_P1;PMS_P2;Temp;Humidity;BMP_temperature;BMP_pressure;BME280_temperature;BME280_humidity;BME280_pressure;Samples;Min_cycle;Max_cycle;Signal;HPM_P1;HPM_P2
2023/01/10 00:00:09;;;;;;;8.60;1.73;;;4.60;99.90;;;;;;20834555;28;20069;-78
2023/01/10 00:10:13;;;;;;;2.70;1.10;;;4.60;99.90;;;;;;20836538;28;20096;-78
2023/01/10 00:20:14;;;;;;;5.82;2.00;;;4.60;99.90;;;;;;20825427;28;20030;-78
2023/01/10 00:30:15;;;;;;;4.55;2.20;;;4.70;99.90;;;;;;20823809;28;20504;-78
2023/01/10 00:40:16;;;;;;;10.68;1.38;;;4.60;99.90;;;;;;20835220;28;20123;-78
2023/01/10 00:50:19;;;;;;;9.85;1.35;;;4.60;99.90;;;;;;20831908;28;20034;-78
2023/01/10 01:00:19;;;;;;;8.98;1.13;;;4.50;99.90;;;;;;20834569;28;20396;-78
2023/01/10 01:10:26;;;;;;;12.63;1.23;;;4.50;99.90;;;;;;20834712;28;20029;-78
2023/01/10 01:20:28;;;;;;;10.50;1.50;;;4.30;99.90;;;;;;20810653;28;20037;-78
2023/01/10 01:30:29;;;;;;;7.88;1.55;;;4.30;99.90;;;;;;20846719;28;20022;-77
2023/01/10 01:40:31;;;;;;;8.40;1.35;;;4.20;99.90;;;;;;20835293;28;20021;-78
2023/01/10 01:50:35;;;;;;;8.15;1.98;;;4.20;99.90;;;;;;20849505;28;20021;-78
2023/01/10 02:00:38;;;;;;;7.68;1.67;;;4.10;99.90;;;;;;20841973;28;20114;-78
2023/01/10 02:11:08;;;;;;;7.25;1.65;;;4.10;99.90;;;;;;20840262;28;20489;-79
2023/01/10 02:21:30;;;;;;;7.88;1.60;;;4.10;99.90;;;;;;20772687;28;20026;-79
2023/01/10 02:32:08;;;;;;;7.13;1.13;;;4.00;99.90;;;;;;20768342;28;20061;-79
2023/01/10 02:42:22;;;;;;;6.43;1.10;;;4.10;99.90;;;;;;20827047;28;20021;-79
2023/01/10 02:52:28;;;;;;;2.70;1.10;;;4.00;99.90;;;;;;20848853;28;20572;-76
2023/01/10 03:03:07;;;;;;;6.18;1.40;;;4.00;99.90;;;;;;20840738;28;20037;-78
2023/01/10 03:13:15;;;;;;;7.55;1.13;;;4.00;99.90;;;;;;20834764;28;20103;-79
2023/01/10 03:23:21;;;;;;;13.45;1.70;;;4.00;99.90;;;;;;20842814;28;20339;-79
2023/01/10 03:33:26;;;;;;;9.90;1.73;;;4.00;99.90;;;;;;20833100;28;20040;-78
2023/01/10 03:54:17;;;;;;;7.07;1.15;;;4.00;99.90;;;;;;20828478;28;20040;-78
2023/01/10 04:04:18;;;;;;;6.45;1.67;;;3.90;99.90;;;;;;20823376;28;20076;-78
2023/01/10 04:14:19;;;;;;;16.67;1.88;;;3.90;99.90;;;;;;20814502;28;20036;-78
2023/01/10 04:24:20;;;;;;;5.18;1.58;;;3.80;99.90;;;;;;20824807;28;20037;-78
2023/01/10 04:34:22;;;;;;;8.05;1.50;;;3.90;99.90;;;;;;20830402;28;20097;-78
2023/01/10 04:44:23;;;;;;;6.13;1.30;;;3.90;99.90;;;;;;20818250;28;20033;-78
2023/01/10 04:54:24;;;;;;;13.82;1.70;;;3.90;99.90;;;;;;20821088;28;20527;-78
2023/01/10 05:04:26;;;;;;;12.55;2.33;;;3.90;99.90;;;;;;20855482;28;20044;-80
2023/01/10 05:14:27;;;;;;;12.65;1.42;;;4.00;99.90;;;;;;20859265;28;20026;-79
2023/01/10 05:24:27;;;;;;;9.63;1.77;;;3.90;99.90;;;;;;20849490;28;20056;-78
2023/01/10 05:34:29;;;;;;;3.15;1.33;;;4.00;99.90;;;;;;20850430;28;20037;-77
2023/01/10 05:44:31;;;;;;;10.82;1.45;;;4.00;99.90;;;;;;20852488;28;20112;-78
2023/01/10 05:54:33;;;;;;;11.00;1.83;;;3.90;99.90;;;;;;20846088;28;20495;-78
2023/01/10 06:04:34;;;;;;;8.48;1.63;;;4.00;99.90;;;;;;20845246;28;20026;-78
2023/01/10 06:14:36;;;;;;;8.20;1.90;;;4.00;99.90;;;;;;20839222;28;20056;-79
2023/01/10 06:24:37;;;;;;;6.07;1.20;;;4.00;99.90;;;;;;20840489;28;20041;-78
2023/01/10 06:34:39;;;;;;;9.48;2.20;;;4.00;99.90;;;;;;20846967;28;20045;-79
2023/01/10 06:44:41;;;;;;;14.18;1.75;;;4.00;99.90;;;;;;20779715;28;20388;-79
2023/01/10 06:54:42;;;;;;;8.85;1.42;;;4.00;99.90;;;;;;20768455;28;20037;-80
2023/01/10 07:04:44;;;;;;;11.80;1.88;;;4.10;99.90;;;;;;20802798;28;20033;-79
2023/01/10 07:14:45;;;;;;;3.17;1.20;;;4.10;99.90;;;;;;20856100;28;20043;-80
2023/01/10 07:24:46;;;;;;;6.50;1.38;;;4.10;99.90;;;;;;20926503;28;20550;-79
2023/01/10 07:34:46;;;;;;;5.43;1.27;;;4.10;99.90;;;;;;20917893;28;20044;-79
2023/01/10 07:44:49;;;;;;;16.48;1.60;;;4.00;99.90;;;;;;20916899;28;20037;-78
2023/01/10 07:54:49;;;;;;;6.18;1.60;;;4.00;99.90;;;;;;20855338;28;20049;-79
2023/01/10 08:04:50;;;;;;;8.00;1.60;;;4.00;99.90;;;;;;20853472;28;20029;-81
2023/01/10 08:14:51;;;;;;;9.80;1.45;;;4.10;99.90;;;;;;20929386;28;20032;-78
2023/01/10 08:24:54;;;;;;;11.65;1.83;;;4.20;99.90;;;;;;20927140;28;20068;-80
2023/01/10 08:34:55;;;;;;;8.70;1.88;;;4.40;99.90;;;;;;20924984;28;20043;-79
2023/01/10 08:44:56;;;;;;;9.63;1.77;;;4.50;99.90;;;;;;20808336;28;20424;-80
2023/01/10 08:54:56;;;;;;;5.18;1.52;;;5.10;99.90;;;;;;20786145;28;20036;-77
2023/01/10 09:04:57;;;;;;;;;;;5.90;99.90;;;;;;20796914;28;20099;-79
2023/01/10 09:15:00;;;;;;;10.23;1.35;;;5.30;99.90;;;;;;20817411;28;20055;-78
2023/01/10 09:25:00;;;;;;;4.80;1.52;;;5.00;99.90;;;;;;20790724;28;20104;-78
2023/01/10 09:35:02;;;;;;;7.53;1.70;;;4.80;99.90;;;;;;20798238;28;20030;-78
2023/01/10 09:45:40;;;;;;;9.35;1.50;;;4.80;99.90;;;;;;20806898;28;20084;-79
2023/01/10 09:55:47;;;;;;;4.88;1.35;;;4.60;99.90;;;;;;20811659;28;20436;-78
2023/01/10 10:05:48;;;;;;;8.07;1.55;;;4.50;99.90;;;;;;20824280;28;20040;-77
2023/01/10 10:16:25;;;;;;;11.02;1.65;;;4.40;99.90;;;;;;20816989;28;20026;-79
2023/01/10 10:26:46;;;;;;;11.88;1.77;;;4.70;99.90;;;;;;20735700;28;20041;-78
2023/01/10 10:37:00;;;;;;;9.38;2.17;;;4.90;99.90;;;;;;20795601;28;20033;-77
2023/01/10 10:47:00;;;;;;;13.48;2.83;;;5.20;99.90;;;;;;20826745;28;20042;-78
2023/01/10 10:57:01;;;;;;;;;;;5.40;99.90;;;;;;20757579;28;20034;-77
2023/01/10 11:07:02;;;;;;;13.40;1.67;;;5.50;99.90;;;;;;20768603;28;19913;-78
2023/01/10 11:17:26;;;;;;;10.45;1.42;;;5.80;99.90;;;;;;20832970;28;20033;-77
2023/01/10 11:27:42;;;;;;;7.85;1.35;;;6.00;99.90;;;;;;20832367;28;20504;-78
2023/01/10 11:37:56;;;;;;;7.00;1.00;;;6.30;99.90;;;;;;20832910;28;20120;-78
2023/01/10 11:48:01;;;;;;;8.57;1.67;;;6.70;99.90;;;;;;20837888;28;20131;-78
2023/01/10 11:58:12;;;;;;;6.93;1.17;;;6.60;99.90;;;;;;20832979;28;20029;-77
2023/01/10 12:08:33;;;;;;;4.45;1.02;;;8.20;99.90;;;;;;20828520;28;20040;-77
2023/01/10 12:18:34;;;;;;;8.38;1.23;;;7.20;99.90;;;;;;20830031;28;20400;-77
2023/01/10 12:28:35;;;;;;;5.27;0.93;;;7.20;99.90;;;;;;20828703;28;20041;-78
2023/01/10 12:39:08;;;;;;;7.40;1.42;;;8.50;99.90;;;;;;20832659;28;20296;-77
2023/01/10 12:49:30;;;;;;;8.93;1.77;;;8.30;99.90;;;;;;20832379;28;20026;-77
2023/01/10 12:59:39;;;;;;;5.18;1.00;;;9.10;99.90;;;;;;20829391;28;20038;-78
2023/01/10 13:09:41;;;;;;;2.15;0.82;;;9.30;99.90;;;;;;20829302;28;20030;-78
2023/01/10 13:19:42;;;;;;;3.65;0.85;;;11.40;99.90;;;;;;20834798;28;20504;-77
2023/01/10 13:29:46;;;;;;;3.33;0.70;;;9.80;99.90;;;;;;20840475;28;20036;-76
2023/01/10 13:39:56;;;;;;;2.60;0.73;;;10.10;99.90;;;;;;20840231;28;20124;-77
2023/01/10 13:49:59;;;;;;;14.10;3.63;;;10.10;99.90;;;;;;20830898;28;20029;-78
2023/01/10 14:10:28;;;;;;;6.45;1.02;;;8.00;99.90;;;;;;20839822;28;20060;-77
2023/01/10 14:20:34;;;;;;;7.13;0.57;;;7.70;99.90;;;;;;20830106;28;20091;-77
2023/01/10 14:30:38;;;;;;;6.80;1.27;;;7.70;99.90;;;;;;20835461;28;20438;-77
2023/01/10 14:40:45;;;;;;;2.05;0.73;;;7.80;99.90;;;;;;20852844;28;20029;-77
2023/01/10 14:50:46;;;;;;;3.83;0.70;;;7.40;99.90;;;;;;20876703;28;20033;-78
2023/01/10 15:00:46;;;;;;;5.17;1.13;;;7.40;99.90;;;;;;20916216;28;20037;-77
2023/01/10 15:10:50;;;;;;;3.40;0.97;;;7.30;99.90;;;;;;20861833;28;20087;-77
2023/01/10 15:20:52;;;;;;;9.05;2.00;;;7.30;99.90;;;;;;20839571;28;20439;-77
2023/01/10 15:30:53;;;;;;;9.55;1.33;;;7.60;99.90;;;;;;20895397;28;20040;-77
2023/01/10 15:41:05;;;;;;;9.25;2.75;;;7.50;99.90;;;;;;20826702;28;20041;-78
2023/01/10 15:51:13;;;;;;;5.18;1.10;;;7.00;99.90;;;;;;20812727;28;20050;-77
2023/01/10 16:01:15;;;;;;;4.60;1.00;;;6.60;99.90;;;;;;20867713;28;20029;-78
2023/01/10 16:21:56;;;;;;;8.90;0.82;;;5.80;99.90;;;;;;20789621;28;20076;-77
2023/01/10 16:31:58;;;;;;;7.63;1.95;;;5.10;99.90;;;;;;20837346;28;20037;-78
2023/01/10 16:52:18;;;;;;;6.60;1.70;;;4.60;99.90;;;;;;20808337;28;20639;-78
2023/01/10 17:02:20;;;;;;;6.90;2.00;;;4.30;99.90;;;;;;20881350;28;20057;-77
2023/01/10 17:12:26;;;;;;;9.90;2.33;;;4.40;99.90;;;;;;20832915;28;20037;-77
2023/01/10 17:22:28;;;;;;;5.40;1.88;;;4.50;99.90;;;;;;20835056;28;20033;-79
2023/01/10 17:32:29;;;;;;;4.88;1.88;;;4.60;99.90;;;;;;20843316;28;20049;-79
2023/01/10 17:42:30;;;;;;;4.15;2.00;;;4.30;99.90;;;;;;20865154;28;20029;-78
2023/01/10 17:52:31;;;;;;;12.32;2.30;;;4.10;99.90;;;;;;20863923;28;20028;-78
2023/01/10 18:02:32;;;;;;;3.60;1.80;;;4.00;99.90;;;;;;20828382;28;20026;-78
2023/01/10 18:12:35;;;;;;;9.73;3.10;;;4.00;99.90;;;;;;20846284;28;20079;-79
2023/01/10 18:32:58;;;;;;;7.13;3.20;;;4.20;99.90;;;;;;20826853;28;20420;-77
2023/01/10 18:43:00;;;;;;;9.90;2.50;;;4.20;99.90;;;;;;20822179;28;20079;-78
2023/01/10 18:53:01;;;;;;;5.35;2.53;;;4.20;99.90;;;;;;20840084;28;20037;-77
2023/01/10 19:03:02;;;;;;;4.30;1.92;;;4.20;99.90;;;;;;20824533;28;20362;-76
2023/01/10 19:13:03;;;;;;;9.38;1.85;;;4.00;99.90;;;;;;20819808;28;20033;-79
2023/01/10 19:23:04;;;;;;;1.63;1.02;;;4.10;99.90;;;;;;20846992;28;20191;-79
2023/01/10 19:33:06;;;;;;;6.90;1.85;;;4.20;99.90;;;;;;20841254;28;20032;-77
2023/01/10 19:43:07;;;;;;;5.15;1.52;;;4.20;99.90;;;;;;20907461;28;20083;-78
2023/01/10 19:53:09;;;;;;;5.18;1.70;;;4.10;99.90;;;;;;20907951;28;20041;-78
2023/01/10 20:03:10;;;;;;;4.28;2.10;;;4.20;99.90;;;;;;20895138;28;20069;-77
2023/01/10 20:13:12;;;;;;;7.57;2.65;;;4.40;99.90;;;;;;20850086;28;20046;-78
2023/01/10 20:23:15;;;;;;;5.28;1.70;;;4.40;99.90;;;;;;20827436;28;20034;-78
2023/01/10 20:33:16;;;;;;;5.28;3.08;;;4.30;99.90;;;;;;20845482;28;20029;-78
2023/01/10 20:43:19;;;;;;;2.65;1.23;;;4.40;99.90;;;;;;20810168;28;20390;-78
2023/01/10 20:53:20;;;;;;;10.95;4.20;;;4.40;99.90;;;;;;20801301;28;20045;-79
2023/01/10 21:03:20;;;;;;;;;;;4.50;99.90;;;;;;20810571;28;20029;-78
2023/01/10 21:13:24;;;;;;;8.07;1.80;;;4.50;99.90;;;;;;20792095;28;19958;-78
2023/01/10 21:23:27;;;;;;;4.63;1.70;;;4.30;99.90;;;;;;20801023;28;20125;-78
2023/01/10 21:33:28;;;;;;;4.78;1.55;;;4.30;99.90;;;;;;20788737;28;20123;-77
2023/01/10 21:43:30;;;;;;;7.03;1.83;;;4.40;99.90;;;;;;20801238;28;20029;-78
2023/01/10 21:53:32;;;;;;;4.68;1.70;;;4.50;99.90;;;;;;20812495;28;20084;-78
2023/01/10 22:03:33;;;;;;;3.05;1.58;;;4.50;99.90;;;;;;20803095;28;20029;-77
2023/01/10 22:13:35;;;;;;;4.68;1.70;;;4.60;99.90;;;;;;20805775;28;20029;-77
2023/01/10 22:23:41;;;;;;;6.18;1.48;;;4.60;99.90;;;;;;20801098;28;20029;-78
2023/01/10 22:33:42;;;;;;;3.78;1.38;;;4.60;99.90;;;;;;20795853;28;20117;-77
2023/01/10 22:43:45;;;;;;;4.53;1.23;;;4.60;99.90;;;;;;20787317;28;20072;-77
2023/01/10 22:53:51;;;;;;;8.55;1.40;;;4.60;99.90;;;;;;20794145;28;20045;-79
2023/01/10 23:03:52;;;;;;;3.33;1.08;;;4.70;99.90;;;;;;20820581;28;20508;-78
2023/01/10 23:13:54;;;;;;;6.10;1.75;;;4.80;99.90;;;;;;20810531;28;20169;-79
2023/01/10 23:23:58;;;;;;;6.45;2.25;;;4.80;99.90;;;;;;20847145;28;20029;-79
2023/01/10 23:33:59;;;;;;;6.45;2.38;;;4.80;99.90;;;;;;20844999;28;20083;-78
2023/01/10 23:44:00;;;;;;;;;;;4.80;99.90;;;;;;20848639;28;20428;-78
2023/01/10 23:54:01;;;;;;;7.47;1.73;;;4.80;99.90;;;;;;20855023;28;19909;-79
